Saint Georges, Delaware
Current Conditions -  °F | °C
As of 12:51 PM on Saturday 20 Dec 2014 (Local Time) from KILG Reporting Station
Overcast Overcast  
Wind Chill: 35°   Ceiling: 3300
Heat Index: 35°   Visibility: 10mi
Dew Point: 20°   Wind: 0mph
Humidity: 54%   Direction: NA
Pressure: 30.28"   Gusts: NA
Location:  39.55°N, 75.65°W
Report Text: KILG 201751Z 00000KT 10SM OVC033 02/M07 A3028 RMK AO2 SLP255 T00171067 10022 20006 56014
Loading
Personal Weather Stations






























Interactive Weather Map New forecast layout! Learn more

10-Day Weather Forecast

Advertisements
Track Severe Weather on mobile